createdAt,value
2018-09-24T00:01:06.919Z,99.90
2018-09-24T00:03:35.596Z,99.90
2018-09-24T00:06:04.289Z,99.90
2018-09-24T00:08:32.738Z,99.90
2018-09-24T00:11:01.272Z,99.90
2018-09-24T00:13:30.686Z,99.90
2018-09-24T00:15:59.616Z,99.90
2018-09-24T00:18:28.202Z,99.90
2018-09-24T00:20:56.446Z,99.90
2018-09-24T00:23:25.167Z,99.90
2018-09-24T00:25:53.653Z,99.90
2018-09-24T00:28:23.141Z,99.90
2018-09-24T00:30:52.190Z,99.90
2018-09-24T00:33:20.618Z,99.90
2018-09-24T00:35:48.894Z,99.90
2018-09-24T00:38:18.275Z,99.90
2018-09-24T00:40:46.773Z,99.90
2018-09-24T00:43:15.081Z,99.90
2018-09-24T00:45:44.265Z,99.90
2018-09-24T00:48:12.573Z,99.90
2018-09-24T00:50:41.332Z,99.90
2018-09-24T00:53:10.036Z,99.90
2018-09-24T00:55:38.262Z,99.90
2018-09-24T00:58:06.685Z,99.90
2018-09-24T01:00:35.742Z,99.90
2018-09-24T01:03:05.539Z,99.90
2018-09-24T01:05:34.461Z,99.90
2018-09-24T01:08:02.967Z,99.90
2018-09-24T01:10:31.742Z,99.90
2018-09-24T01:13:00.012Z,99.90
2018-09-24T01:15:29.051Z,99.90
2018-09-24T01:17:57.332Z,99.90
2018-09-24T01:20:26.345Z,99.90
2018-09-24T01:22:55.375Z,99.90
2018-09-24T01:25:24.058Z,99.90
2018-09-24T01:27:52.843Z,99.90
2018-09-24T01:30:21.037Z,99.90
2018-09-24T01:32:49.523Z,99.90
2018-09-24T01:35:18.592Z,99.90
2018-09-24T01:37:46.827Z,99.90
2018-09-24T01:40:15.630Z,99.90
2018-09-24T01:42:44.803Z,99.90
2018-09-24T01:45:13.329Z,99.90
2018-09-24T01:47:41.906Z,99.90
2018-09-24T01:50:10.636Z,99.90
2018-09-24T01:52:39.408Z,99.90
2018-09-24T01:55:09.212Z,99.90
2018-09-24T01:57:37.950Z,99.90
2018-09-24T02:00:07.483Z,99.90
2018-09-24T02:02:35.887Z,99.90
2018-09-24T02:05:04.421Z,99.90
2018-09-24T02:07:33.130Z,99.90
2018-09-24T02:10:01.825Z,99.90
2018-09-24T02:12:30.493Z,99.90
2018-09-24T02:14:59.185Z,99.90
2018-09-24T02:17:27.635Z,99.90
2018-09-24T02:19:56.113Z,99.90
2018-09-24T02:22:27.366Z,99.90
2018-09-24T02:24:56.875Z,99.90
2018-09-24T02:27:25.551Z,99.90
2018-09-24T02:29:53.964Z,99.90
2018-09-24T02:32:22.566Z,99.90
2018-09-24T02:34:53.306Z,99.90
2018-09-24T02:37:21.580Z,99.90
2018-09-24T02:39:50.399Z,99.90
2018-09-24T02:42:19.014Z,99.90
2018-09-24T02:44:55.488Z,99.90
2018-09-24T02:47:24.179Z,99.90
2018-09-24T02:49:52.406Z,99.90
2018-09-24T02:52:21.139Z,99.90
2018-09-24T02:54:50.587Z,99.90
2018-09-24T02:57:19.039Z,99.90
2018-09-24T02:59:47.291Z,99.90
2018-09-24T03:02:15.675Z,99.90
2018-09-24T03:04:44.409Z,99.90
2018-09-24T03:07:12.881Z,99.90
2018-09-24T03:09:41.119Z,99.90
2018-09-24T03:12:09.643Z,99.90
2018-09-24T03:14:37.878Z,99.90
2018-09-24T03:17:06.617Z,99.90
2018-09-24T03:19:35.353Z,99.90
2018-09-24T03:22:04.062Z,99.90
2018-09-24T03:24:32.729Z,99.90
2018-09-24T03:27:00.968Z,99.90
2018-09-24T03:29:29.420Z,99.90
2018-09-24T03:31:57.662Z,99.90
2018-09-24T03:34:26.338Z,99.90
2018-09-24T03:36:55.044Z,99.90
2018-09-24T03:39:23.818Z,99.90
2018-09-24T03:41:52.521Z,99.90
2018-09-24T03:44:20.781Z,99.90
2018-09-24T03:46:49.511Z,99.90
2018-09-24T03:49:18.428Z,99.90
2018-09-24T03:51:47.160Z,99.90
2018-09-24T03:54:15.797Z,99.90
2018-09-24T03:56:45.180Z,99.90
2018-09-24T03:59:14.167Z,99.90
2018-09-24T04:01:42.458Z,99.90
2018-09-24T04:04:16.183Z,99.90
2018-09-24T04:06:50.130Z,99.90
2018-09-24T04:09:24.060Z,99.90
2018-09-24T04:11:57.779Z,99.90
2018-09-24T04:14:31.655Z,99.90
2018-09-24T04:17:05.541Z,99.90
2018-09-24T04:19:39.368Z,99.90
2018-09-24T04:22:13.091Z,99.90
2018-09-24T04:24:46.766Z,99.90
2018-09-24T04:27:20.323Z,99.90
2018-09-24T04:29:53.835Z,99.90
2018-09-24T04:32:27.610Z,99.90
2018-09-24T04:35:01.336Z,99.90
2018-09-24T04:37:35.328Z,99.90
2018-09-24T04:40:09.049Z,99.90
2018-09-24T04:42:42.697Z,99.90
2018-09-24T04:45:16.495Z,99.90
2018-09-24T04:47:50.094Z,99.90
2018-09-24T04:50:24.018Z,99.90
2018-09-24T04:52:57.764Z,99.90
2018-09-24T04:55:31.366Z,99.90
2018-09-24T04:58:05.106Z,99.90
2018-09-24T05:00:38.930Z,99.90
2018-09-24T05:03:12.679Z,99.90
2018-09-24T05:05:46.333Z,99.90
2018-09-24T05:08:20.057Z,99.90
2018-09-24T05:10:53.468Z,99.90
2018-09-24T05:13:27.141Z,99.90
2018-09-24T05:16:00.882Z,99.90
2018-09-24T05:18:34.344Z,99.90
2018-09-24T05:21:08.026Z,99.90
2018-09-24T05:23:41.847Z,99.90
2018-09-24T05:26:15.296Z,99.90
2018-09-24T05:28:49.038Z,99.90
2018-09-24T05:31:22.867Z,99.90
2018-09-24T05:33:56.603Z,99.90
2018-09-24T05:36:30.116Z,99.90
2018-09-24T05:39:04.114Z,99.90
2018-09-24T05:41:37.768Z,99.90
2018-09-24T05:44:11.349Z,99.90
2018-09-24T05:46:45.007Z,99.90
2018-09-24T05:49:18.800Z,99.90
2018-09-24T05:51:52.575Z,99.90
2018-09-24T05:54:26.475Z,99.90
2018-09-24T05:57:01.445Z,99.90
2018-09-24T05:59:35.494Z,99.90
2018-09-24T06:02:09.625Z,99.90
2018-09-24T06:04:43.629Z,99.90
2018-09-24T06:07:17.560Z,99.90
2018-09-24T06:09:51.465Z,99.90
2018-09-24T06:12:25.512Z,99.90
2018-09-24T06:14:59.481Z,99.90
2018-09-24T06:17:33.431Z,99.90
2018-09-24T06:20:07.896Z,99.90
2018-09-24T06:22:41.615Z,99.90
2018-09-24T06:25:15.531Z,99.90
2018-09-24T06:27:49.302Z,99.90
2018-09-24T06:30:22.913Z,99.90
2018-09-24T06:32:56.653Z,99.90
2018-09-24T06:35:30.454Z,99.90
2018-09-24T06:38:04.115Z,99.90
2018-09-24T06:40:37.853Z,99.90
2018-09-24T06:43:12.142Z,99.90
2018-09-24T06:45:45.629Z,99.90
2018-09-24T06:48:19.382Z,99.90
2018-09-24T06:50:53.203Z,99.90
2018-09-24T06:53:26.742Z,99.90
2018-09-24T06:56:00.651Z,99.90
2018-09-24T06:58:35.115Z,99.90
2018-09-24T07:01:08.807Z,99.90
2018-09-24T07:03:42.454Z,99.90
2018-09-24T07:06:16.234Z,99.90
2018-09-24T07:08:50.175Z,99.90
2018-09-24T07:11:24.163Z,99.90
2018-09-24T07:13:57.696Z,99.90
2018-09-24T07:16:31.355Z,99.90
2018-09-24T07:19:04.792Z,99.90
2018-09-24T07:21:38.336Z,99.90
2018-09-24T07:24:12.308Z,99.90
2018-09-24T07:26:46.191Z,99.90
2018-09-24T07:29:19.913Z,99.90
2018-09-24T07:31:53.572Z,99.90
2018-09-24T07:34:27.301Z,99.90
2018-09-24T07:37:01.299Z,99.90
2018-09-24T07:39:34.988Z,99.90
2018-09-24T07:42:09.019Z,99.90
2018-09-24T07:44:42.770Z,99.90
2018-09-24T07:47:16.775Z,99.90
2018-09-24T07:49:50.488Z,99.90
2018-09-24T07:52:24.168Z,99.90
2018-09-24T07:54:57.943Z,99.90
2018-09-24T07:57:31.438Z,99.90
2018-09-24T08:00:05.047Z,99.90
2018-09-24T08:02:38.749Z,99.90
2018-09-24T08:05:12.470Z,99.90
2018-09-24T08:07:46.330Z,99.80
2018-09-24T08:10:20.397Z,99.90
2018-09-24T08:12:54.249Z,99.90
2018-09-24T08:15:27.978Z,99.90
2018-09-24T08:18:01.718Z,99.90
2018-09-24T08:20:35.370Z,99.90
2018-09-24T08:23:09.178Z,99.90
2018-09-24T08:25:49.713Z,99.90
2018-09-24T08:28:23.632Z,99.70
2018-09-24T08:30:57.031Z,99.00
2018-09-24T08:33:30.813Z,98.40
2018-09-24T08:36:04.398Z,97.40
2018-09-24T08:38:38.183Z,96.90
2018-09-24T08:41:11.910Z,96.70
2018-09-24T08:43:45.495Z,97.30
2018-09-24T08:46:19.218Z,97.60
2018-09-24T08:48:52.740Z,97.50
2018-09-24T08:51:26.731Z,96.20
2018-09-24T08:54:00.411Z,96.30
2018-09-24T08:56:34.064Z,95.60
2018-09-24T08:59:08.746Z,96.20
2018-09-24T09:01:42.481Z,96.10
2018-09-24T09:04:16.110Z,96.40
2018-09-24T09:06:49.698Z,95.40
2018-09-24T09:09:23.941Z,94.90
2018-09-24T09:11:57.474Z,94.30
2018-09-24T09:14:30.967Z,94.40
2018-09-24T09:17:04.572Z,93.90
2018-09-24T09:19:38.290Z,93.90
2018-09-24T09:22:12.154Z,93.00
2018-09-24T09:24:45.884Z,91.90
2018-09-24T09:27:19.555Z,90.50
2018-09-24T09:29:53.462Z,86.60
2018-09-24T09:32:27.247Z,88.50
2018-09-24T09:35:00.926Z,87.20
2018-09-24T09:37:34.354Z,90.00
2018-09-24T09:40:08.030Z,90.10
2018-09-24T09:42:41.769Z,90.50
2018-09-24T09:45:15.578Z,90.20
2018-09-24T09:47:50.312Z,88.70
2018-09-24T09:50:24.037Z,88.80
2018-09-24T09:52:57.879Z,89.00
2018-09-24T09:55:31.823Z,87.90
2018-09-24T09:58:05.820Z,86.50
2018-09-24T10:00:39.381Z,87.30
2018-09-24T10:03:12.940Z,89.00
2018-09-24T10:05:46.627Z,84.30
2018-09-24T10:08:20.400Z,86.00
2018-09-24T10:10:54.139Z,89.50
2018-09-24T10:13:27.915Z,90.60
2018-09-24T10:16:01.671Z,89.30
2018-09-24T10:18:35.236Z,88.00
2018-09-24T10:21:09.976Z,89.20
2018-09-24T10:23:44.472Z,87.20
2018-09-24T10:26:18.203Z,85.90
2018-09-24T10:28:52.830Z,85.70
2018-09-24T10:31:26.382Z,89.60
2018-09-24T10:34:00.192Z,90.50
2018-09-24T10:36:34.159Z,90.60
2018-09-24T10:39:07.862Z,84.10
2018-09-24T10:41:41.482Z,84.60
2018-09-24T10:44:15.459Z,81.20
2018-09-24T10:46:49.134Z,77.20
2018-09-24T10:49:22.856Z,79.40
2018-09-24T10:51:57.014Z,83.20
2018-09-24T10:54:30.763Z,78.20
2018-09-24T10:57:04.543Z,78.00
2018-09-24T10:59:39.311Z,80.30
2018-09-24T11:02:12.982Z,84.70
2018-09-24T11:04:47.080Z,79.00
2018-09-24T11:07:20.789Z,78.60
2018-09-24T11:09:54.871Z,80.70
2018-09-24T11:12:28.483Z,83.60
2018-09-24T11:15:01.961Z,78.80
2018-09-24T11:17:35.686Z,78.00
2018-09-24T11:20:09.113Z,79.70
2018-09-24T11:22:42.744Z,80.60
2018-09-24T11:25:16.500Z,83.30
2018-09-24T11:27:50.245Z,81.80
2018-09-24T11:30:24.241Z,81.20
2018-09-24T11:32:57.987Z,84.00
2018-09-24T11:35:31.687Z,80.20
2018-09-24T11:38:05.635Z,79.80
2018-09-24T11:40:39.457Z,76.40
2018-09-24T11:43:13.073Z,73.50
2018-09-24T11:45:46.655Z,73.00
2018-09-24T11:48:20.229Z,68.20
2018-09-24T11:50:54.039Z,70.70
2018-09-24T11:53:27.650Z,69.70
2018-09-24T11:56:01.727Z,69.90
2018-09-24T11:58:35.463Z,72.60
2018-09-24T12:01:09.210Z,71.40
2018-09-24T12:03:42.747Z,67.40
2018-09-24T12:06:16.526Z,66.80
2018-09-24T12:08:50.599Z,65.40
2018-09-24T12:11:24.132Z,64.80
2018-09-24T12:13:57.679Z,68.00
2018-09-24T12:16:31.268Z,67.10
2018-09-24T12:19:05.055Z,69.10
2018-09-24T12:21:38.852Z,67.90
2018-09-24T12:24:12.651Z,68.00
2018-09-24T12:26:46.145Z,68.60
2018-09-24T12:29:19.889Z,65.00
2018-09-24T12:31:53.699Z,65.60
2018-09-24T12:34:27.503Z,64.90
2018-09-24T12:37:01.202Z,66.40
2018-09-24T12:39:35.671Z,68.20
2018-09-24T12:42:09.430Z,71.50
2018-09-24T12:44:43.234Z,73.90
2018-09-24T12:47:17.216Z,74.30
2018-09-24T12:49:50.916Z,74.40
2018-09-24T12:52:24.450Z,73.90
2018-09-24T12:54:57.898Z,75.60
2018-09-24T12:57:31.578Z,74.70
2018-09-24T13:00:05.142Z,74.00
2018-09-24T13:02:39.188Z,66.40
2018-09-24T13:05:13.338Z,66.50
2018-09-24T13:07:46.946Z,70.20
2018-09-24T13:10:20.704Z,69.90
2018-09-24T13:12:54.533Z,71.90
2018-09-24T13:15:28.477Z,74.80
2018-09-24T13:18:02.324Z,78.00
2018-09-24T13:20:36.243Z,77.10
2018-09-24T13:23:10.556Z,76.20
2018-09-24T13:25:44.290Z,76.00
2018-09-24T13:28:17.816Z,74.80
2018-09-24T13:30:51.674Z,68.80
2018-09-24T13:33:25.462Z,67.90
2018-09-24T13:35:59.176Z,65.30
2018-09-24T13:38:32.743Z,66.90
2018-09-24T13:41:06.535Z,65.00
2018-09-24T13:43:40.251Z,66.30
2018-09-24T13:46:14.141Z,66.80
2018-09-24T13:48:47.983Z,70.40
2018-09-24T13:51:22.650Z,72.60
2018-09-24T13:53:56.217Z,70.70
2018-09-24T13:56:29.963Z,69.50
2018-09-24T13:59:03.705Z,67.30
2018-09-24T14:01:38.414Z,67.40
2018-09-24T14:04:12.292Z,68.60
2018-09-24T14:06:45.967Z,70.80
2018-09-24T14:09:19.729Z,69.70
2018-09-24T14:11:53.136Z,70.50
2018-09-24T14:14:26.902Z,71.60
2018-09-24T14:17:00.534Z,70.00
2018-09-24T14:19:34.158Z,70.00
2018-09-24T14:22:07.890Z,67.60
2018-09-24T14:24:41.646Z,65.80
2018-09-24T14:27:15.351Z,64.40
2018-09-24T14:29:49.139Z,64.80
2018-09-24T14:32:23.099Z,62.90
2018-09-24T14:34:56.826Z,66.00
2018-09-24T14:37:30.595Z,68.00
2018-09-24T14:40:04.023Z,69.70
2018-09-24T14:42:37.775Z,69.90
2018-09-24T14:45:11.514Z,70.30
2018-09-24T14:47:45.095Z,70.40
2018-09-24T14:50:19.886Z,66.90
2018-09-24T14:52:53.955Z,67.30
2018-09-24T14:55:28.762Z,69.70
2018-09-24T14:58:02.469Z,68.70
2018-09-24T15:00:36.109Z,64.40
2018-09-24T15:03:09.903Z,63.60
2018-09-24T15:05:43.721Z,64.60
2018-09-24T15:08:17.342Z,64.40
2018-09-24T15:10:50.937Z,66.10
2018-09-24T15:13:25.488Z,68.00
2018-09-24T15:15:59.319Z,71.30
2018-09-24T15:18:32.890Z,70.30
2018-09-24T15:21:06.788Z,71.80
2018-09-24T15:23:40.481Z,73.30
2018-09-24T15:26:14.356Z,74.60
2018-09-24T15:28:48.442Z,74.60
2018-09-24T15:31:22.303Z,73.20
2018-09-24T15:33:56.010Z,72.30
2018-09-24T15:36:29.690Z,72.40
2018-09-24T15:39:03.348Z,71.70
2018-09-24T15:41:37.002Z,72.10
2018-09-24T15:44:10.667Z,73.00
2018-09-24T15:46:44.278Z,73.10
2018-09-24T15:49:19.658Z,74.50
2018-09-24T15:51:53.430Z,75.20
2018-09-24T15:54:27.259Z,76.00
2018-09-24T15:57:00.786Z,75.70
2018-09-24T15:59:35.443Z,76.50
2018-09-24T16:02:08.963Z,76.60
2018-09-24T16:04:42.748Z,77.10
2018-09-24T16:07:16.470Z,76.20
2018-09-24T16:09:51.324Z,76.00
2018-09-24T16:12:25.093Z,76.20
2018-09-24T16:14:58.841Z,74.90
2018-09-24T16:17:32.706Z,76.20
2018-09-24T16:20:06.654Z,77.20
2018-09-24T16:22:40.339Z,77.80
2018-09-24T16:25:13.929Z,78.20
2018-09-24T16:27:47.672Z,77.00
2018-09-24T16:30:21.456Z,76.70
2018-09-24T16:32:55.199Z,76.10
2018-09-24T16:35:28.948Z,76.70
2018-09-24T16:38:02.784Z,78.30
2018-09-24T16:40:36.334Z,77.10
2018-09-24T16:43:09.815Z,77.80
2018-09-24T16:45:44.303Z,77.90
2018-09-24T16:48:17.846Z,79.20
2018-09-24T16:50:51.507Z,80.40
2018-09-24T16:53:25.217Z,80.90
2018-09-24T16:55:58.926Z,81.90
2018-09-24T16:58:32.514Z,82.30
2018-09-24T17:01:06.291Z,82.90
2018-09-24T17:03:39.910Z,83.80
2018-09-24T17:06:13.795Z,84.90
2018-09-24T17:08:47.330Z,85.70
2018-09-24T17:11:21.074Z,86.30
2018-09-24T17:13:54.949Z,87.20
2018-09-24T17:16:28.603Z,87.30
2018-09-24T17:19:02.306Z,89.10
2018-09-24T17:21:35.936Z,89.70
2018-09-24T17:24:09.747Z,90.40
2018-09-24T17:26:43.760Z,90.60
2018-09-24T17:29:17.459Z,91.90
2018-09-24T17:31:51.204Z,94.70
2018-09-24T17:34:24.881Z,95.80
2018-09-24T17:36:58.524Z,96.80
2018-09-24T17:39:32.176Z,97.70
2018-09-24T17:42:06.009Z,98.30
2018-09-24T17:44:39.908Z,98.90
2018-09-24T17:47:13.514Z,99.30
2018-09-24T17:49:47.626Z,99.60
2018-09-24T17:52:21.420Z,99.90
2018-09-24T17:54:55.570Z,99.90
2018-09-24T17:57:29.962Z,99.90
2018-09-24T18:00:03.818Z,99.90
2018-09-24T18:02:37.366Z,99.90
2018-09-24T18:05:11.922Z,99.90
2018-09-24T18:07:45.527Z,99.90
2018-09-24T18:10:19.124Z,99.90
2018-09-24T18:12:53.523Z,99.90
2018-09-24T18:15:27.387Z,99.90
2018-09-24T18:18:01.094Z,99.90
2018-09-24T18:20:34.951Z,99.90
2018-09-24T18:23:08.630Z,99.90
2018-09-24T18:25:42.335Z,99.90
2018-09-24T18:28:16.219Z,99.90
2018-09-24T18:30:49.951Z,99.90
2018-09-24T18:33:23.738Z,99.90
2018-09-24T18:35:57.360Z,99.90
2018-09-24T18:38:31.467Z,99.90
2018-09-24T18:41:05.497Z,99.90
2018-09-24T18:43:39.609Z,99.90
2018-09-24T18:46:13.504Z,99.90
2018-09-24T18:48:47.261Z,99.90
2018-09-24T18:51:20.779Z,99.90
2018-09-24T18:53:54.556Z,99.90
2018-09-24T18:56:28.134Z,99.90
2018-09-24T18:59:01.814Z,99.90
2018-09-24T19:01:35.726Z,99.90
2018-09-24T19:04:09.692Z,99.90
2018-09-24T19:06:43.205Z,99.90
2018-09-24T19:09:17.147Z,99.90
2018-09-24T19:11:51.157Z,99.90
2018-09-24T19:14:24.973Z,99.90
2018-09-24T19:16:58.823Z,99.90
2018-09-24T19:19:32.785Z,99.90
2018-09-24T19:22:07.510Z,99.90
2018-09-24T19:24:41.359Z,99.90
2018-09-24T19:27:15.036Z,99.90
2018-09-24T19:29:49.338Z,99.90
2018-09-24T19:32:23.455Z,99.90
2018-09-24T19:34:57.559Z,99.90
2018-09-24T19:37:30.951Z,99.90
2018-09-24T19:40:04.751Z,99.90
2018-09-24T19:42:38.456Z,99.90
2018-09-24T19:45:12.412Z,99.90
2018-09-24T19:47:46.151Z,99.90
2018-09-24T19:50:19.898Z,99.90
2018-09-24T19:52:53.674Z,99.90
2018-09-24T19:55:27.707Z,99.90
2018-09-24T19:58:01.716Z,99.90
2018-09-24T20:00:35.311Z,99.90
2018-09-24T20:03:09.096Z,99.90
2018-09-24T20:05:43.326Z,99.90
2018-09-24T20:08:17.722Z,99.90
2018-09-24T20:10:52.167Z,99.90
2018-09-24T20:13:25.960Z,99.90
2018-09-24T20:16:00.475Z,99.90
2018-09-24T20:18:35.101Z,99.90
2018-09-24T20:21:09.161Z,99.90
2018-09-24T20:23:43.139Z,99.90
2018-09-24T20:26:17.426Z,99.90
2018-09-24T20:28:51.318Z,99.90
2018-09-24T20:31:25.847Z,99.90
2018-09-24T20:34:01.478Z,99.90
2018-09-24T20:36:35.073Z,99.90
2018-09-24T20:39:08.918Z,99.90
2018-09-24T20:41:43.148Z,99.90
2018-09-24T20:44:17.363Z,99.90
2018-09-24T20:46:51.247Z,99.90
2018-09-24T20:49:25.406Z,99.90
2018-09-24T20:51:59.256Z,99.90
2018-09-24T20:54:33.905Z,99.90
2018-09-24T20:57:08.209Z,99.90
2018-09-24T20:59:42.479Z,99.90
2018-09-24T21:02:16.474Z,99.90
2018-09-24T21:04:50.388Z,99.90
2018-09-24T21:07:24.434Z,99.90
2018-09-24T21:09:58.481Z,99.90
2018-09-24T21:12:32.521Z,99.90
2018-09-24T21:15:06.596Z,99.90
2018-09-24T21:17:40.654Z,99.90
2018-09-24T21:20:14.637Z,99.90
2018-09-24T21:22:48.916Z,99.90
2018-09-24T21:25:22.817Z,99.90
2018-09-24T21:27:56.736Z,99.90
2018-09-24T21:30:30.862Z,99.90
2018-09-24T21:33:04.955Z,99.90
2018-09-24T21:35:39.064Z,99.90
2018-09-24T21:38:12.939Z,99.90
2018-09-24T21:40:46.931Z,99.90
2018-09-24T21:43:20.882Z,99.90
2018-09-24T21:45:55.049Z,99.90
2018-09-24T21:48:29.152Z,99.90
2018-09-24T21:51:03.064Z,99.90
2018-09-24T21:53:37.155Z,99.90
2018-09-24T21:56:11.473Z,99.90
2018-09-24T21:58:46.191Z,99.90
2018-09-24T22:01:20.822Z,99.90
2018-09-24T22:03:55.187Z,99.90
2018-09-24T22:06:29.368Z,99.90
2018-09-24T22:09:03.500Z,99.90
2018-09-24T22:11:37.493Z,99.90
2018-09-24T22:14:12.604Z,99.90
2018-09-24T22:16:46.317Z,99.90
2018-09-24T22:19:19.917Z,99.90
2018-09-24T22:21:53.697Z,99.90
2018-09-24T22:24:27.926Z,99.90
2018-09-24T22:27:01.953Z,99.90
2018-09-24T22:29:35.570Z,99.90
2018-09-24T22:32:09.179Z,99.90
2018-09-24T22:34:42.851Z,99.90
2018-09-24T22:37:17.197Z,99.90
2018-09-24T22:39:50.879Z,99.90
2018-09-24T22:42:24.576Z,99.90
2018-09-24T22:44:58.498Z,99.90
2018-09-24T22:47:32.062Z,99.90
2018-09-24T22:50:05.815Z,99.90
2018-09-24T22:52:39.381Z,99.90
2018-09-24T22:55:13.365Z,99.90
2018-09-24T22:57:48.075Z,99.90
2018-09-24T23:00:21.859Z,99.90
2018-09-24T23:02:55.477Z,99.90
2018-09-24T23:05:29.873Z,99.90
2018-09-24T23:10:13.034Z,99.90
2018-09-24T23:12:46.888Z,99.90
2018-09-24T23:15:20.742Z,99.90
2018-09-24T23:17:54.568Z,99.90
2018-09-24T23:20:28.457Z,99.90
2018-09-24T23:23:02.365Z,99.90
2018-09-24T23:25:36.133Z,99.90
2018-09-24T23:28:09.670Z,99.90
2018-09-24T23:30:43.342Z,99.90
2018-09-24T23:33:17.091Z,99.90
2018-09-24T23:35:50.706Z,99.90
2018-09-24T23:38:24.424Z,99.90
2018-09-24T23:40:58.042Z,99.90
2018-09-24T23:43:31.592Z,99.90
2018-09-24T23:46:05.643Z,99.90
2018-09-24T23:48:39.202Z,99.90
2018-09-24T23:51:12.914Z,99.90
2018-09-24T23:53:47.152Z,99.90
2018-09-24T23:56:21.871Z,99.90
2018-09-24T23:58:57.165Z,99.90
